Cape Flattery, Washington
Current Conditions -  °F | °C
As of 9:53 PM on Friday 19 Dec 2014 (Local Time) from KUIL Reporting Station
Overcast Overcast  
Wind Chill: 43°   Ceiling: 5500
Heat Index: 47°   Visibility: 9mi
Dew Point: 44°   Wind: 9mph
Humidity: 90%   Direction: 150°SSE
Pressure: 29.77"   Gusts: NA
Location:  48.3685°N, 124.623°W
Report Text: KUIL 200553Z AUTO 15008KT 120V190 9SM SCT025 BKN055 OVC080 08/07 A2977 RMK AO2 SLP080 60004 T00830067 10089 20078 56022
Loading
Personal Weather Stations






























Interactive Weather Map New forecast layout! Learn more

10-Day Weather Forecast

Advertisements
Track Severe Weather on mobile